Pagina principale
METAR-TAF:

METAR-TAF

Aeroporti :

Grazzanise, Italia

latitudine: 41-03N, longitudine: 014-04E, altezza: 9 m

Osservazione

Il bollettino è stato emesso 48 minuti fa, alle 01:55 UTC
Temperature 17°C
Umidità 88%
Pressione 1013 hPa
Visibilità 10 km o più
nessuna nube inferiore a 1500 m e nessun cumulonembo

METAR: LIRM 190155Z /////KT CAVOK 17/15 Q1013 RMK SKC VIS MIN 9999 WIND THR06 01006KT BLU

Ora: 04:43 (02:43 UTC)

Previsione

Il bollettino è stato emesso 43 minuti fa, alle 02:00 UTC
Previsione valida dal 19 alle 03 UTC al 19 alle 12 UTC
Vento 8 kt da nord/nord-est
Visibilità 10 km o più
nessuna nube inferiore a 1500 m e nessun cumulonembo

TAF: LIRM 190200Z 1903/1912 03008KT CAVOK

Osservazioni e previsioni meteorologiche di più di 4000 aeroporti (messaggi METAR e TAF).

Le stazioni disponibili sono rappresentate dai dischi gialli e rossi sulla carta.

Puntare il mouse per vedere il nome della stazione.

Clicca sopra per visualizzare le osservazioni e previsioni meteorologiche.

Per cambiare la mappa : fare clic sui pulsanti verdi con una croce nera per ingrandire, il pulsante verde con un trattino per diminuire, o sulla freccia verde per le mappe adiacenti.


METAR-TAF: